• Join FlightAware (Why Join?)
  • Login
  • US Flag 
10:48PM EDT


 

Airport Tracker/Info


-or-


 

Live Flight TrackerFlight Track Log ✈ FWK227 ✈ 12-Jul-2013 ✈ KPHL - KPDK

Flight Track Log - Related Links

Times and Time Zones

All times are in EDT time to prevent confusion due to time zone crossing. See the FWK227 flight status page for this flight to view local times or setup timezone preferences in your user account.

Time Position Orientation Groundspeed Altitude Reporting Facility
EDT Latitude Longitude Course Direction KTS MPH feet Rate Location/Type
03:49PM 39.8833 -75.2000 57° Northeast 147 169 800  Level Philadelphia TRACON
03:50PM 39.9000 -75.1667 57° Northeast 169 194 3,200 3,060 Climbing Philadelphia TRACON
03:51PM 39.9333 -75.1333 37° Northeast 243 280 6,100 2,880 Climbing Philadelphia TRACON
03:52PM 40.0167 -75.1333 360° North 297 342 9,300 1,920 Climbing Philadelphia TRACON
03:53PM 40.0167 -75.2333 270° West 350 403 10,000 240 Climbing Philadelphia TRACON
03:55PM 39.9436 -75.4469 246° West 367 422 10,000  Level New York Center
03:56PM 39.9053 -75.5742 249° West 356 410 10,000 720 Level New York Center
03:57PM 39.9067 -75.6881 271° West 345 397 11,500 1,860 Climbing New York Center
03:58PM 39.9153 -75.8319 275° West 350 403 13,700 2,100 Climbing New York Center
03:59PM 39.9181 -75.9567 272° West 356 410 15,800 1,920 Climbing New York Center
04:00PM 39.8756 -76.0728 245° Southwest 344 396 17,700 1,560 Climbing New York Center
04:01PM 39.8383 -76.1592 241° Southwest 344 396 18,900 1,260 Climbing New York Center
04:02PM 39.7842 -76.2928 242° Southwest 349 402 20,300 1,320 Climbing New York Center
04:03PM 39.7369 -76.4053 241° Southwest 354 407 21,600 1,260 Climbing New York Center
04:04PM 39.6900 -76.5175 241° Southwest 354 407 22,900 1,320 Climbing New York Center
04:05PM 39.6361 -76.6425 241° Southwest 363 418 24,400 1,260 Climbing Washington Center
04:06PM 39.5892 -76.7547 242° Southwest 363 418 25,700 1,260 Climbing Washington Center
04:07PM 39.5403 -76.8669 241° Southwest 363 418 26,900 1,260 Climbing Washington Center
04:08PM 39.4975 -76.9739 243° Southwest 351 404 28,200 1,200 Climbing Washington Center
04:09PM 39.4278 -77.0531 221° Southwest 343 395 29,400 1,140 Climbing Washington Center
04:10PM 39.3619 -77.1378 225° Southwest 338 389 30,600 1,200 Climbing Washington Center
04:11PM 39.3006 -77.2250 228° Southwest 338 389 31,800 1,200 Climbing Washington Center
04:12PM 39.2389 -77.3119 228° Southwest 338 389 33,000 1,140 Climbing Washington Center
04:13PM 39.1772 -77.3961 227° Southwest 338 389 34,100 1,020 Climbing Washington Center
04:14PM 39.1133 -77.4831 227° Southwest 338 389 35,100 900 Climbing Washington Center
04:15PM 39.0558 -77.5589 226° Southwest 338 389 36,000 960 Climbing Washington Center
04:16PM 38.9875 -77.6558 228° Southwest 343 395 37,100 960 Climbing Washington Center
04:17PM 38.9319 -77.7317 227° Southwest 343 395 38,000 420 Climbing Washington Center
04:18PM 38.8614 -77.8256 226° Southwest 343 395 38,000  Level Washington Center
04:19PM 38.7928 -77.9222 228° Southwest 358 412 38,000  Level Washington Center
04:20PM 38.7328 -78.0028 226° Southwest 358 412 38,000  Level Washington Center
04:21PM 38.6686 -78.0883 226° Southwest 358 412 38,000  Level Washington Center
04:22PM 38.6019 -78.1792 227° Southwest 358 412 38,000  Level Washington Center
04:23PM 38.5375 -78.2672 227° Southwest 353 406 38,000  Level Washington Center
04:24PM 38.4731 -78.3525 226° Southwest 353 406 38,000  Level Washington Center
04:25PM 38.4064 -78.4400 226° Southwest 348 400 38,000  Level Washington Center
04:26PM 38.3417 -78.5275 227° Southwest 348 400 38,000  Level Washington Center
04:27PM 38.2769 -78.6150 227° Southwest 343 395 38,000  Level Washington Center
04:28PM 38.2183 -78.7050 230° Southwest 343 395 38,000  Level Washington Center
04:29PM 38.1575 -78.7950 229° Southwest 343 395 38,000  Level Washington Center
04:30PM 38.0922 -78.8978 231° Southwest 348 400 38,000  Level Washington Center
04:31PM 38.0314 -78.9900 230° Southwest 348 400 38,000  Level Washington Center
04:32PM 37.9703 -79.0819 230° Southwest 348 400 38,000  Level Washington Center
04:33PM 37.9069 -79.1764 230° Southwest 348 400 38,000  Level Washington Center
04:34PM 37.8522 -79.2606 231° Southwest 353 406 38,000  Level Washington Center
04:35PM 37.7844 -79.3597 229° Southwest 353 406 38,000  Level Washington Center
04:36PM 37.7144 -79.4639 230° Southwest 358 412 38,000  Level Washington Center
04:37PM 37.6556 -79.5475 228° Southwest 363 418 38,000  Level Washington Center
04:38PM 37.5775 -79.6353 222° Southwest 351 404 38,000  Level Washington Center
04:39PM 37.5122 -79.7103 222° Southwest 351 404 38,000  Level Washington Center
04:40PM 37.4386 -79.7900 221° Southwest 351 404 38,000  Level Washington Center
04:41PM 37.3583 -79.8797 222° Southwest 351 404 38,000  Level Washington Center
04:43PM 37.1744 -80.0719 220° Southwest 335 386 38,000  Level Atlanta Center
04:44PM 37.1039 -80.1508 222° Southwest 335 386 38,000  Level Atlanta Center
04:45PM 37.0333 -80.2272 221° Southwest 341 392 38,000  Level Atlanta Center
04:46PM 36.9606 -80.3033 220° Southwest 341 392 38,000  Level Atlanta Center
04:47PM 36.8939 -80.3689 218° Southwest 341 392 38,000  Level Atlanta Center
04:48PM 36.8189 -80.4450 219° Southwest 341 392 38,000  Level Atlanta Center
04:49PM 36.7417 -80.5106 214° Southwest 346 398 38,000  Level Atlanta Center
04:50PM 36.6836 -80.6011 231° Southwest 336 387 38,000  Level Atlanta Center
04:51PM 36.6494 -80.7139 249° West 341 392 38,000  Level Atlanta Center
04:52PM 36.6128 -80.8292 248° West 351 404 38,000  Level Atlanta Center
04:53PM 36.5803 -80.9417 250° West 356 410 38,000  Level Atlanta Center
04:54PM 36.5497 -81.0567 252° West 350 403 38,000  Level Atlanta Center
04:55PM 36.5186 -81.1583 249° West 350 403 38,000  Level Atlanta Center
04:56PM 36.4761 -81.2967 249° West 350 403 38,000  Level Atlanta Center
04:57PM 36.4411 -81.4117 249° West 355 409 38,000  Level Atlanta Center
04:58PM 36.4017 -81.5264 247° West 355 409 38,000  Level Atlanta Center
04:59PM 36.3664 -81.6383 249° West 360 414 38,000  Level Atlanta Center
05:00PM 36.3247 -81.7556 246° West 360 414 38,000  Level Atlanta Center
05:01PM 36.2853 -81.8700 247° West 353 406 38,000  Level Atlanta Center
05:02PM 36.2475 -81.9817 247° West 358 412 38,000  Level Atlanta Center
05:03PM 36.2056 -82.0961 246° West 358 412 38,000  Level Atlanta Center
05:04PM 36.1697 -82.2100 249° West 358 412 38,000  Level Atlanta Center
05:05PM 36.1317 -82.3086 244° Southwest 358 412 38,000  Level Atlanta Center
05:06PM 36.0936 -82.4225 248° West 358 412 38,000  Level Atlanta Center
05:07PM 36.0533 -82.5364 246° West 363 418 38,000  Level Atlanta Center
05:08PM 35.9939 -82.6375 234° Southwest 363 418 38,000 -420 Level Atlanta Center
05:09PM 35.9261 -82.7336 229° Southwest 368 423 37,200 -1,200 Descending Atlanta Center
05:10PM 35.8603 -82.8269 229° Southwest 374 430 35,600 -1,140 Descending Atlanta Center
05:11PM 35.7986 -82.9172 230° Southwest 362 417 35,000 -300 Descending Atlanta Center
05:12PM 35.7347 -83.0078 229° Southwest 355 409 35,000 -120 Level Atlanta Center
05:13PM 35.6689 -83.1058 230° Southwest 365 420 34,800 -1,200 Descending Atlanta Center
05:14PM 35.5986 -83.2036 229° Southwest 365 420 32,600 -2,220 Descending Atlanta Center
05:15PM 35.5386 -83.2936 231° Southwest 361 415 30,400 -2,400 Descending Atlanta Center
05:16PM 35.4683 -83.3936 229° Southwest 381 438 27,900 -2,460 Descending Atlanta Center
05:17PM 35.4356 -83.5186 252° West 381 438 25,500 -1,980 Descending Atlanta Center
05:18PM 35.4006 -83.6414 251° West 381 438 24,000 -840 Descending Atlanta Center
05:19PM 35.3675 -83.7586 251° West 375 432 23,900 -780 Descending Atlanta Center
05:20PM 35.3364 -83.8758 252° West 368 423 22,500 -1,440 Descending Atlanta Center
05:21PM 35.3011 -83.9981 251° West 373 429 21,100 -1,260 Descending Atlanta Center
05:22PM 35.2656 -84.1203 250° West 373 429 20,000 -600 Descending Atlanta Center
05:23PM 35.2319 -84.2344 250° West 373 429 20,000  Level Atlanta Center
05:24PM 35.1964 -84.3539 250° West 373 429 20,000  Level Atlanta Center
05:25PM 35.1625 -84.4758 251° West 373 429 20,000  Level Atlanta Center
05:26PM 35.1286 -84.5925 250° West 368 423 20,000  Level Atlanta Center
05:27PM 35.0656 -84.6908 232° Southwest 368 423 20,000  Level Atlanta Center
05:28PM 34.9550 -84.7153 190° South 356 410 20,000  Level Atlanta Center
05:29PM 34.8419 -84.7372 189° South 380 437 20,000  Level Atlanta Center
05:30PM 34.7314 -84.7567 159° South 396 456 20,000  Level Atlanta Center
05:31PM 34.7452 -84.6931 159° South  Level Estimated
05:31PM 34.6122 -84.7808 189° South 403 464 20,000  Level Atlanta Center
05:32PM 34.5119 -84.8000 189° South 388 447 17,500 -2,700 Descending Atlanta Center
05:33PM 34.4139 -84.8169 188° South 366 421 14,600 -3,000 Descending Atlanta Center
05:34PM 34.3261 -84.8361 190° South 339 390 11,600 -2,760 Descending Atlanta Center
05:35PM 34.2444 -84.8531 190° South 314 361 9,100 -1,440 Descending Atlanta Center
05:36PM 34.1906 -84.8072 145° Southeast 243 280 8,800 -1,200 Descending Atlanta Center
05:37PM 34.1472 -84.7367 127° Southeast 241 277 6,700 -1,440 Descending Atlanta Center
05:38PM 34.1142 -84.6786 125° Southeast 248 285 6,000 -540 Descending Atlanta Center
05:39PM 34.0789 -84.6181 125° Southeast 234 269 5,700 -600 Descending Atlanta Center
05:40PM 34.0458 -84.5603 125° Southeast 223 257 4,800 -1,200 Descending Atlanta Center
05:41PM 34.0106 -84.5075 129° Southeast 212 244 3,400 -900 Descending Atlanta Center
05:42PM 33.9667 -84.4544 135° Southeast 204 235 3,000 120 Descending Atlanta Center
05:43PM 33.9147 -84.4544 180° South 175 201 3,700 300 Climbing Atlanta Center
05:45PM 33.9000 -84.5500 260° West 205 236 4,000 60 Climbing Atlanta TRACON
05:46PM 33.9167 -84.6167 287° West 198 228 3,900 -540 Descending Atlanta TRACON
05:47PM 33.9667 -84.6000 15° North 188 216 3,000 -600 Descending Atlanta TRACON
05:48PM 33.9833 -84.5500 68° East 178 205 2,700 -300 Descending Atlanta TRACON
05:50PM 33.9552 -84.4327 129° Southeast  Level FlightAware Approximate
05:57PM 33.8667 -84.3000 129° Southeast  Level FlightAware Approximate
05:58PM 33.8756 -84.3020 129° Southeast  Level Estimated